createdAt,value
2023-01-15T00:02:18.284Z,30.38
2023-01-15T00:04:45.331Z,31.15
2023-01-15T00:07:12.268Z,30.42
2023-01-15T00:09:39.128Z,30.45
2023-01-15T00:12:07.225Z,29.27
2023-01-15T00:14:34.313Z,28.13
2023-01-15T00:17:01.693Z,29.77
2023-01-15T00:19:28.964Z,31.35
2023-01-15T00:21:56.050Z,37.38
2023-01-15T00:24:41.250Z,30.25
2023-01-15T00:27:29.932Z,26.92
2023-01-15T00:29:56.853Z,26.48
2023-01-15T00:32:27.283Z,19.75
2023-01-15T00:37:22.417Z,13.75
2023-01-15T00:39:49.338Z,12.90
2023-01-15T00:42:17.855Z,12.75
2023-01-15T00:44:46.638Z,13.00
2023-01-15T00:47:15.239Z,12.63
2023-01-15T00:49:43.196Z,14.25
2023-01-15T00:52:11.125Z,13.80
2023-01-15T00:54:38.312Z,14.27
2023-01-15T00:57:05.357Z,13.77
2023-01-15T00:59:32.413Z,14.05
2023-01-15T01:01:59.644Z,13.75
2023-01-15T01:04:26.595Z,13.18
2023-01-15T01:06:53.515Z,14.75
2023-01-15T01:09:20.470Z,15.10
2023-01-15T01:11:49.655Z,13.52
2023-01-15T01:14:16.472Z,12.90
2023-01-15T01:16:43.480Z,14.13
2023-01-15T01:19:19.668Z,15.18
2023-01-15T01:21:47.906Z,13.50
2023-01-15T01:24:17.453Z,13.90
2023-01-15T01:26:45.444Z,13.15
2023-01-15T01:29:14.267Z,13.35
2023-01-15T01:31:41.332Z,14.70
2023-01-15T01:34:10.426Z,17.55
2023-01-15T01:36:40.044Z,16.17
2023-01-15T01:39:10.381Z,15.43
2023-01-15T01:41:37.521Z,15.07
2023-01-15T01:44:33.147Z,14.57
2023-01-15T01:47:11.719Z,14.45
2023-01-15T01:49:40.651Z,14.45
2023-01-15T01:52:15.704Z,13.85
2023-01-15T01:54:46.559Z,13.77
2023-01-15T01:59:42.635Z,13.90
2023-01-15T02:02:09.778Z,15.52
2023-01-15T02:04:37.844Z,18.77
2023-01-15T02:07:05.243Z,18.05
2023-01-15T02:09:32.489Z,20.65
2023-01-15T02:12:20.013Z,21.40
2023-01-15T02:15:03.510Z,19.00
2023-01-15T02:17:43.362Z,16.65
2023-01-15T02:20:42.325Z,17.35
2023-01-15T02:23:48.536Z,19.23
2023-01-15T02:26:30.621Z,18.92
2023-01-15T02:28:59.847Z,20.00
2023-01-15T02:31:33.626Z,17.65
2023-01-15T02:34:10.764Z,17.10
2023-01-15T02:36:44.188Z,16.30
2023-01-15T02:39:23.731Z,19.77
2023-01-15T02:41:54.480Z,19.00
2023-01-15T02:44:27.160Z,19.33
2023-01-15T02:46:59.775Z,19.27
2023-01-15T02:49:29.515Z,17.67
2023-01-15T02:52:15.358Z,19.05
2023-01-15T02:55:06.356Z,18.17
2023-01-15T03:00:09.300Z,16.05
2023-01-15T03:02:42.993Z,18.80
2023-01-15T03:05:18.588Z,18.88
2023-01-15T03:07:49.734Z,15.05
2023-01-15T03:10:17.467Z,16.75
2023-01-15T03:13:04.259Z,17.48
2023-01-15T03:16:11.105Z,15.75
2023-01-15T03:18:55.708Z,17.25
2023-01-15T03:21:55.737Z,16.67
2023-01-15T03:24:29.345Z,17.15
2023-01-15T03:26:56.714Z,17.50
2023-01-15T03:29:28.243Z,20.40
2023-01-15T03:31:55.384Z,18.63
2023-01-15T03:34:22.582Z,18.40
2023-01-15T03:36:49.811Z,18.25
2023-01-15T03:39:18.946Z,19.02
2023-01-15T03:42:02.934Z,18.88
2023-01-15T03:44:45.532Z,18.55
2023-01-15T03:47:18.482Z,18.90
2023-01-15T03:49:59.793Z,18.85
2023-01-15T03:52:48.441Z,15.63
2023-01-15T03:55:26.215Z,17.55
2023-01-15T03:58:07.661Z,18.30
2023-01-15T04:00:44.283Z,17.23
2023-01-15T04:03:14.348Z,16.77
2023-01-15T04:05:42.519Z,17.73
2023-01-15T04:08:11.523Z,17.83
2023-01-15T04:10:38.426Z,18.88
2023-01-15T04:13:09.423Z,17.17
2023-01-15T04:15:36.561Z,18.48
2023-01-15T04:18:03.513Z,20.60
2023-01-15T04:20:31.193Z,23.25
2023-01-15T04:22:58.219Z,22.70
2023-01-15T04:25:25.105Z,25.65
2023-01-15T04:27:55.180Z,29.27
2023-01-15T04:30:22.890Z,30.58
2023-01-15T04:32:51.041Z,29.92
2023-01-15T04:35:19.657Z,27.88
2023-01-15T04:37:47.291Z,25.50
2023-01-15T04:40:34.561Z,27.05
2023-01-15T04:43:20.073Z,28.52
2023-01-15T04:45:47.116Z,27.27
2023-01-15T04:48:13.994Z,24.92
2023-01-15T04:50:41.002Z,30.55
2023-01-15T04:53:07.881Z,55.80
2023-01-15T04:55:34.853Z,46.80
2023-01-15T04:58:01.772Z,41.60
2023-01-15T05:00:28.715Z,37.15
2023-01-15T05:02:55.744Z,25.75
2023-01-15T05:05:22.658Z,22.42
2023-01-15T05:07:50.981Z,16.80
2023-01-15T05:10:18.011Z,14.18
2023-01-15T05:12:44.976Z,14.40
2023-01-15T05:15:11.876Z,13.23
2023-01-15T05:17:38.831Z,11.95
2023-01-15T05:20:06.347Z,11.43
2023-01-15T05:22:35.470Z,11.82
2023-01-15T05:25:02.462Z,13.05
2023-01-15T05:27:29.490Z,17.70
2023-01-15T05:29:56.242Z,26.48
2023-01-15T05:32:23.142Z,26.92
2023-01-15T05:34:50.038Z,27.70
2023-01-15T05:37:17.035Z,23.75
2023-01-15T05:39:43.931Z,23.50
2023-01-15T05:42:10.839Z,21.55
2023-01-15T05:44:37.923Z,24.08
2023-01-15T05:47:07.631Z,30.05
2023-01-15T05:49:34.930Z,37.88
2023-01-15T05:52:02.153Z,34.15
2023-01-15T05:54:32.079Z,35.45
2023-01-15T05:57:02.593Z,38.72
2023-01-15T05:59:31.133Z,39.25
2023-01-15T06:01:58.479Z,39.50
2023-01-15T06:04:26.648Z,42.78
2023-01-15T06:06:56.818Z,43.35
2023-01-15T06:09:25.644Z,50.85
2023-01-15T06:11:53.904Z,41.65
2023-01-15T06:14:20.915Z,40.78
2023-01-15T06:16:48.002Z,41.53
2023-01-15T06:19:15.231Z,38.85
2023-01-15T06:21:42.452Z,37.05
2023-01-15T06:24:10.203Z,30.60
2023-01-15T06:26:38.367Z,41.50
2023-01-15T06:29:05.398Z,46.22
2023-01-15T06:31:32.726Z,32.75
2023-01-15T06:33:59.735Z,38.03
2023-01-15T06:36:27.895Z,40.95
2023-01-15T06:38:55.399Z,38.88
2023-01-15T06:41:42.734Z,36.63
2023-01-15T06:44:33.763Z,38.15
2023-01-15T06:47:21.162Z,37.80
2023-01-15T06:49:53.487Z,35.08
2023-01-15T06:52:21.034Z,34.17
2023-01-15T06:54:48.027Z,27.83
2023-01-15T06:57:14.901Z,30.80
2023-01-15T06:59:41.876Z,33.67
2023-01-15T07:02:11.239Z,38.67
2023-01-15T07:04:38.138Z,62.65
2023-01-15T07:07:05.290Z,61.95
2023-01-15T07:09:32.131Z,58.13
2023-01-15T07:11:59.131Z,62.95
2023-01-15T07:14:28.306Z,66.53
2023-01-15T07:16:55.992Z,66.50
2023-01-15T07:19:22.983Z,59.83
2023-01-15T07:22:03.540Z,60.10
2023-01-15T07:24:33.657Z,81.50
2023-01-15T07:27:03.219Z,90.28
2023-01-15T07:29:31.529Z,97.82
2023-01-15T07:31:58.753Z,72.28
2023-01-15T07:34:25.734Z,83.18
2023-01-15T07:36:52.701Z,90.53
2023-01-15T07:39:19.728Z,80.40
2023-01-15T07:42:05.676Z,67.95
2023-01-15T07:44:53.444Z,55.50
2023-01-15T07:47:44.993Z,55.78
2023-01-15T07:50:16.641Z,47.10
2023-01-15T07:52:43.823Z,49.80
2023-01-15T07:55:12.871Z,33.75
2023-01-15T07:57:41.595Z,22.50
2023-01-15T08:00:12.347Z,24.13
2023-01-15T08:02:40.287Z,22.10
2023-01-15T08:05:08.085Z,21.13
2023-01-15T08:07:42.303Z,15.40
2023-01-15T08:10:11.715Z,13.10
2023-01-15T08:12:57.907Z,16.33
2023-01-15T08:15:25.560Z,20.10
2023-01-15T08:17:53.074Z,18.15
2023-01-15T08:20:22.421Z,19.42
2023-01-15T08:22:49.870Z,18.10
2023-01-15T08:25:21.921Z,16.48
2023-01-15T08:27:49.363Z,13.48
2023-01-15T08:30:23.473Z,14.65
2023-01-15T08:32:50.638Z,16.60
2023-01-15T08:35:17.647Z,14.10
2023-01-15T08:37:44.543Z,13.82
2023-01-15T08:40:12.513Z,13.73
2023-01-15T08:42:40.115Z,13.77
2023-01-15T08:45:08.025Z,12.80
2023-01-15T08:47:35.027Z,11.80
2023-01-15T08:50:02.168Z,12.55
2023-01-15T08:52:29.131Z,14.63
2023-01-15T08:54:56.190Z,17.33
2023-01-15T08:57:23.171Z,11.20
2023-01-15T08:59:50.024Z,13.00
2023-01-15T09:02:17.891Z,10.02
2023-01-15T09:04:45.048Z,11.60
2023-01-15T09:07:13.031Z,10.77
2023-01-15T09:09:40.032Z,13.77
2023-01-15T09:12:12.120Z,10.20
2023-01-15T09:14:58.061Z,12.20
2023-01-15T09:17:26.089Z,11.77
2023-01-15T09:19:53.040Z,13.68
2023-01-15T09:22:19.908Z,10.35
2023-01-15T09:24:47.299Z,33.40
2023-01-15T09:27:14.415Z,13.93
2023-01-15T09:29:41.545Z,9.18
2023-01-15T09:32:11.817Z,8.20
2023-01-15T09:34:38.939Z,8.70
2023-01-15T09:37:05.915Z,11.05
2023-01-15T09:39:32.934Z,10.38
2023-01-15T09:42:21.707Z,9.55
2023-01-15T09:45:30.542Z,10.65
2023-01-15T09:48:13.367Z,9.07
2023-01-15T09:50:40.405Z,9.93
2023-01-15T09:53:28.540Z,10.57
2023-01-15T09:55:55.992Z,18.58
2023-01-15T09:58:37.555Z,14.23
2023-01-15T10:01:05.605Z,12.82
2023-01-15T10:03:48.157Z,14.02
2023-01-15T10:06:42.147Z,16.95
2023-01-15T10:09:18.435Z,5.63
2023-01-15T10:12:14.909Z,9.27
2023-01-15T10:15:02.610Z,10.15
2023-01-15T10:18:02.608Z,7.10
2023-01-15T10:20:43.471Z,6.10
2023-01-15T10:23:13.361Z,6.65
2023-01-15T10:25:50.764Z,6.28
2023-01-15T10:28:29.636Z,9.75
2023-01-15T10:31:06.850Z,9.00
2023-01-15T10:33:46.773Z,8.50
2023-01-15T10:36:49.367Z,6.47
2023-01-15T10:39:44.841Z,7.10
2023-01-15T10:42:27.313Z,9.73
2023-01-15T10:45:12.513Z,10.48
2023-01-15T10:47:41.195Z,6.43
2023-01-15T10:50:17.405Z,5.20
2023-01-15T10:52:51.092Z,8.45
2023-01-15T10:55:27.565Z,8.85
2023-01-15T10:58:10.659Z,12.43
2023-01-15T11:00:40.008Z,8.07
2023-01-15T11:03:23.179Z,9.15
2023-01-15T11:05:50.705Z,11.20
2023-01-15T11:12:01.641Z,4.95
2023-01-15T11:14:57.057Z,6.88
2023-01-15T11:17:46.934Z,4.82
2023-01-15T11:20:50.755Z,6.78
2023-01-15T11:23:22.063Z,7.97
2023-01-15T11:25:54.253Z,7.82
2023-01-15T11:28:43.552Z,7.68
2023-01-15T11:31:12.607Z,5.57
2023-01-15T11:33:40.300Z,14.30
2023-01-15T11:36:23.452Z,9.75
2023-01-15T11:38:51.846Z,10.10
2023-01-15T11:41:23.297Z,16.25
2023-01-15T11:44:16.947Z,13.60
2023-01-15T11:47:05.503Z,6.93
2023-01-15T11:49:50.799Z,10.68
2023-01-15T11:52:22.722Z,7.60
2023-01-15T11:54:53.053Z,10.38
2023-01-15T11:57:33.239Z,24.05
2023-01-15T12:00:00.481Z,9.80
2023-01-15T12:03:03.390Z,13.70
2023-01-15T12:05:34.595Z,16.30
2023-01-15T12:08:20.533Z,13.30
2023-01-15T12:11:21.108Z,10.45
2023-01-15T12:14:09.146Z,9.88
2023-01-15T12:16:57.817Z,12.18
2023-01-15T12:19:46.570Z,7.03
2023-01-15T12:22:39.272Z,8.80
2023-01-15T12:25:21.312Z,8.77
2023-01-15T12:28:07.987Z,8.35
2023-01-15T12:30:53.063Z,10.55
2023-01-15T12:33:39.705Z,7.88
2023-01-15T12:36:28.978Z,7.65
2023-01-15T12:39:11.914Z,7.82
2023-01-15T12:42:00.496Z,7.20
2023-01-15T12:45:00.987Z,8.10
2023-01-15T12:47:52.714Z,6.60
2023-01-15T12:50:27.443Z,7.00
2023-01-15T12:53:18.035Z,8.90
2023-01-15T12:55:54.090Z,6.18
2023-01-15T12:58:27.086Z,6.65
2023-01-15T13:01:20.403Z,6.93
2023-01-15T13:04:05.604Z,11.13
2023-01-15T13:06:34.790Z,11.52
2023-01-15T13:09:37.081Z,8.65
2023-01-15T13:12:10.268Z,6.10
2023-01-15T13:14:37.905Z,6.50
2023-01-15T13:17:16.998Z,6.60
2023-01-15T13:20:09.635Z,13.55
2023-01-15T13:22:50.654Z,5.88
2023-01-15T13:25:33.985Z,7.05
2023-01-15T13:28:13.206Z,6.80
2023-01-15T13:31:09.420Z,6.90
2023-01-15T13:33:49.010Z,6.53
2023-01-15T13:36:21.595Z,9.02
2023-01-15T13:38:54.868Z,8.65
2023-01-15T13:41:50.472Z,8.80
2023-01-15T13:44:27.085Z,7.97
2023-01-15T13:47:15.940Z,7.05
2023-01-15T13:49:55.325Z,8.88
2023-01-15T13:52:28.499Z,8.82
2023-01-15T13:55:23.745Z,9.20
2023-01-15T13:57:50.972Z,8.73
2023-01-15T14:00:39.463Z,8.95
2023-01-15T14:03:30.815Z,8.93
2023-01-15T14:06:00.807Z,8.70
2023-01-15T14:08:37.219Z,15.15
2023-01-15T14:11:04.529Z,21.13
2023-01-15T14:13:50.182Z,19.70
2023-01-15T14:16:24.195Z,15.80
2023-01-15T14:19:15.453Z,12.57
2023-01-15T14:22:21.855Z,11.13
2023-01-15T14:24:59.189Z,12.20
2023-01-15T14:27:35.707Z,16.08
2023-01-15T14:30:37.371Z,36.50
2023-01-15T14:35:57.317Z,21.42
2023-01-15T14:38:27.521Z,14.27
2023-01-15T14:41:06.869Z,16.40
2023-01-15T14:43:41.578Z,13.77
2023-01-15T14:46:22.142Z,23.27
2023-01-15T14:48:49.076Z,20.75
2023-01-15T14:51:38.377Z,19.00
2023-01-15T14:54:11.829Z,19.75
2023-01-15T14:56:45.306Z,26.58
2023-01-15T14:59:26.409Z,17.35
2023-01-15T15:02:03.312Z,20.85
2023-01-15T15:04:41.249Z,21.88
2023-01-15T15:07:14.167Z,29.52
2023-01-15T15:10:13.984Z,28.17
2023-01-15T15:12:49.704Z,42.90
2023-01-15T15:15:25.471Z,29.20
2023-01-15T15:18:03.567Z,53.33
2023-01-15T15:20:42.545Z,42.63
2023-01-15T15:23:18.901Z,55.42
2023-01-15T15:25:57.588Z,37.03
2023-01-15T15:28:24.557Z,38.20
2023-01-15T15:30:52.482Z,50.55
2023-01-15T15:33:22.735Z,49.67
2023-01-15T15:35:53.469Z,38.53
2023-01-15T15:38:22.766Z,55.78
2023-01-15T15:40:55.216Z,45.95
2023-01-15T15:43:49.846Z,39.13
2023-01-15T15:46:49.887Z,40.00
2023-01-15T15:49:17.638Z,40.28
2023-01-15T15:51:48.817Z,38.25
2023-01-15T15:54:18.284Z,41.13
2023-01-15T15:57:14.779Z,39.28
2023-01-15T15:59:50.363Z,40.35
2023-01-15T16:02:25.611Z,38.38
2023-01-15T16:04:56.620Z,38.30
2023-01-15T16:07:26.720Z,41.47
2023-01-15T16:09:58.843Z,41.35
2023-01-15T16:12:30.118Z,41.42
2023-01-15T16:17:27.210Z,47.15
2023-01-15T16:19:57.578Z,63.67
2023-01-15T16:22:56.128Z,106.47
2023-01-15T16:25:42.823Z,92.38
2023-01-15T16:28:28.015Z,98.32
2023-01-15T16:30:59.862Z,101.95
2023-01-15T16:33:27.368Z,72.07
2023-01-15T16:36:04.892Z,57.67
2023-01-15T16:38:34.516Z,36.08
2023-01-15T16:41:02.321Z,40.40
2023-01-15T16:43:30.910Z,39.25
2023-01-15T16:46:29.828Z,43.83
2023-01-15T16:49:24.216Z,48.72
2023-01-15T16:51:53.166Z,36.35
2023-01-15T16:54:32.101Z,60.83
2023-01-15T16:57:02.942Z,92.80
2023-01-15T16:59:30.347Z,104.80
2023-01-15T17:02:16.720Z,101.57
2023-01-15T17:04:48.209Z,110.70
2023-01-15T17:07:39.313Z,107.82
2023-01-15T17:10:19.745Z,108.22
2023-01-15T17:12:46.687Z,118.60
2023-01-15T17:15:16.707Z,121.18
2023-01-15T17:17:45.844Z,124.53
2023-01-15T17:20:14.107Z,126.53
2023-01-15T17:22:44.889Z,128.15
2023-01-15T17:25:22.807Z,123.45
2023-01-15T17:27:49.978Z,126.03
2023-01-15T17:30:17.645Z,130.00
2023-01-15T17:32:44.838Z,124.50
2023-01-15T17:35:30.252Z,115.72
2023-01-15T17:37:57.369Z,105.30
2023-01-15T17:40:24.931Z,88.95
2023-01-15T17:42:53.936Z,80.03
2023-01-15T17:45:29.121Z,50.50
2023-01-15T17:47:58.238Z,45.67
2023-01-15T17:50:25.908Z,48.25
2023-01-15T17:52:52.981Z,59.00
2023-01-15T17:55:51.576Z,44.42
2023-01-15T17:58:41.984Z,34.10
2023-01-15T18:01:57.177Z,38.97
2023-01-15T18:04:57.330Z,46.10
2023-01-15T18:07:28.055Z,46.97
2023-01-15T18:09:56.596Z,44.17
2023-01-15T18:12:23.899Z,59.97
2023-01-15T18:14:50.843Z,68.97
2023-01-15T18:17:17.743Z,59.20
2023-01-15T18:19:44.593Z,69.20
2023-01-15T18:22:13.802Z,75.47
2023-01-15T18:24:40.996Z,68.47
2023-01-15T18:27:07.999Z,70.18
2023-01-15T18:29:39.993Z,81.47
2023-01-15T18:32:10.261Z,80.05
2023-01-15T18:34:37.758Z,82.97
2023-01-15T18:37:04.989Z,78.50
2023-01-15T18:39:31.834Z,70.18
2023-01-15T18:41:58.762Z,53.50
2023-01-15T18:44:44.610Z,42.40
2023-01-15T18:47:14.505Z,24.02
2023-01-15T18:49:43.285Z,19.27
2023-01-15T18:52:30.948Z,20.33
2023-01-15T18:54:57.804Z,21.85
2023-01-15T18:57:24.982Z,26.10
2023-01-15T18:59:52.112Z,33.63
2023-01-15T19:02:21.151Z,47.70
2023-01-15T19:04:48.525Z,58.30
2023-01-15T19:07:16.174Z,56.28
2023-01-15T19:09:42.954Z,51.55
2023-01-15T19:12:09.936Z,51.80
2023-01-15T19:14:55.287Z,62.58
2023-01-15T19:17:43.329Z,46.00
2023-01-15T19:20:16.022Z,29.83
2023-01-15T19:23:05.209Z,41.78
2023-01-15T19:25:40.454Z,36.65
2023-01-15T19:28:09.740Z,33.53
2023-01-15T19:30:38.725Z,28.80
2023-01-15T19:33:09.057Z,34.38
2023-01-15T19:35:37.864Z,34.50
2023-01-15T19:38:08.402Z,36.70
2023-01-15T19:40:40.728Z,27.50
2023-01-15T19:43:26.228Z,24.95
2023-01-15T19:46:11.647Z,27.13
2023-01-15T19:48:57.083Z,39.55
2023-01-15T19:51:44.891Z,39.83
2023-01-15T19:54:11.874Z,47.00
2023-01-15T19:56:38.879Z,42.35
2023-01-15T19:59:06.480Z,36.83
2023-01-15T20:01:33.520Z,35.25
2023-01-15T20:04:00.432Z,36.88
2023-01-15T20:06:27.693Z,34.55
2023-01-15T20:08:57.978Z,29.77
2023-01-15T20:11:44.782Z,22.50
2023-01-15T20:14:11.668Z,28.42
2023-01-15T20:16:38.559Z,36.40
2023-01-15T20:19:05.411Z,25.88
2023-01-15T20:22:01.785Z,21.88
2023-01-15T20:24:28.651Z,23.23
2023-01-15T20:26:55.558Z,25.58
2023-01-15T20:29:22.467Z,28.40
2023-01-15T20:31:49.520Z,26.88
2023-01-15T20:34:16.451Z,35.28
2023-01-15T20:36:43.418Z,34.95
2023-01-15T20:39:10.497Z,33.55
2023-01-15T20:41:56.115Z,36.22
2023-01-15T20:44:41.694Z,30.77
2023-01-15T20:47:28.501Z,28.00
2023-01-15T20:49:55.322Z,25.90
2023-01-15T20:52:22.484Z,28.15
2023-01-15T20:54:50.835Z,29.02
2023-01-15T20:57:17.692Z,21.60
2023-01-15T20:59:44.532Z,22.70
2023-01-15T21:02:12.271Z,16.98
2023-01-15T21:04:39.127Z,18.88
2023-01-15T21:07:06.236Z,18.67
2023-01-15T21:09:33.213Z,13.82
2023-01-15T21:12:00.088Z,14.55
2023-01-15T21:14:26.928Z,15.90
2023-01-15T21:16:53.937Z,22.35
2023-01-15T21:19:23.287Z,24.13
2023-01-15T21:21:50.340Z,20.42
2023-01-15T21:24:17.218Z,19.45
2023-01-15T21:26:45.834Z,17.60
2023-01-15T21:29:13.779Z,20.75
2023-01-15T21:31:43.202Z,26.05
2023-01-15T21:34:10.196Z,32.13
2023-01-15T21:36:37.804Z,30.15
2023-01-15T21:39:04.756Z,24.70
2023-01-15T21:41:50.192Z,19.60
2023-01-15T21:44:31.910Z,17.25
2023-01-15T21:47:00.409Z,15.93
2023-01-15T21:49:27.733Z,16.50
2023-01-15T21:51:54.922Z,15.82
2023-01-15T21:54:21.804Z,14.45
2023-01-15T21:56:48.803Z,14.52
2023-01-15T21:59:15.656Z,15.25
2023-01-15T22:01:42.584Z,16.13
2023-01-15T22:04:09.459Z,16.48
2023-01-15T22:06:37.982Z,19.25
2023-01-15T22:09:05.074Z,22.33
2023-01-15T22:11:58.259Z,24.00
2023-01-15T22:14:28.033Z,35.35
2023-01-15T22:16:56.709Z,28.63
2023-01-15T22:19:27.903Z,24.77
2023-01-15T22:24:30.290Z,16.20
2023-01-15T22:26:58.147Z,17.45
2023-01-15T22:29:31.036Z,17.42
2023-01-15T22:31:59.165Z,18.83
2023-01-15T22:34:28.276Z,21.42
2023-01-15T22:36:55.860Z,22.08
2023-01-15T22:39:24.243Z,21.58
2023-01-15T22:42:10.074Z,21.35
2023-01-15T22:44:37.046Z,20.63
2023-01-15T22:47:05.047Z,23.17
2023-01-15T22:49:32.359Z,24.08
2023-01-15T22:51:59.269Z,25.60
2023-01-15T22:54:26.098Z,19.55
2023-01-15T22:56:53.038Z,16.60
2023-01-15T22:59:20.127Z,14.60
2023-01-15T23:01:47.467Z,17.25
2023-01-15T23:04:16.802Z,16.23
2023-01-15T23:06:44.290Z,18.10
2023-01-15T23:09:12.094Z,20.15
2023-01-15T23:11:39.775Z,22.50
2023-01-15T23:14:07.939Z,20.80
2023-01-15T23:16:35.260Z,21.90
2023-01-15T23:19:02.806Z,20.00
2023-01-15T23:21:32.974Z,21.02
2023-01-15T23:24:01.773Z,20.00
2023-01-15T23:26:33.233Z,22.17
2023-01-15T23:29:00.669Z,18.90
2023-01-15T23:31:28.395Z,19.20
2023-01-15T23:33:55.357Z,17.17
2023-01-15T23:36:22.390Z,15.77
2023-01-15T23:38:49.495Z,34.35
2023-01-15T23:41:19.129Z,25.90
2023-01-15T23:44:04.430Z,26.58
2023-01-15T23:46:37.537Z,23.50
2023-01-15T23:49:07.386Z,22.52
2023-01-15T23:51:35.800Z,20.05
2023-01-15T23:54:02.890Z,18.70
2023-01-15T23:56:30.893Z,19.00
2023-01-15T23:58:58.353Z,23.60
